Seadream 1 — C6PW8 — position and weather

sailwx.info

Track history (hours):
 
Tides and Currents Weather Stations Pressure Air Temp Water Temp Dewpoint Dewpoint Depression Visibility Wind Speed Wind Dir Waves Ship Positions

Seadream 1

Last reported at 2014-Aug-29 08:33 UTC. Time now 2014-Aug-29 12:22 UTC.
Position N 53°30' E 004°46'.

Length 105 m; draft 4.4 m.

Type: Ship. MMSI: 308908000.

Date/timePositionNaut miles runAvg speedWind from/ knotsBaromVisibWave heightAir tempDewpointWater temp
2014-Aug-29 08:33N 53°30' E 004°46'107 9.4
2014-Aug-28 21:07N 54°01' E 007°39'610.7
2014-Aug-28 20:33N 54°02' E 007°49'1311.7
2014-Aug-28 19:26N 54°00' E 008°12'1516.7
2014-Aug-28 18:33N 53°58' E 008°36'1616.0
2014-Aug-28 17:34N 53°52' E 009°01'6 6.3
2014-Aug-28 16:33N 53°55' E 009°10'9 8.5
2014-Aug-28 15:33N 54°02' E 009°18'4 3.8
2014-Aug-28 14:33N 54°06' E 009°20'5 4.6
2014-Aug-28 13:33N 54°10' E 009°23'32 4.6
2014-Aug-28 06:26N 54°25' E 010°13'2110.0
2014-Aug-28 04:19N 54°35' E 010°45'7 9.7
2014-Aug-28 03:34N 54°36' E 010°57'19 9.4
2014-Aug-28 01:30N 54°31' E 011°30'10 9.6
2014-Aug-28 00:29N 54°27' E 011°45'9 9.6
2014-Aug-27 23:34N 54°26' E 011°60'9 8.6
2014-Aug-27 22:33N 54°31' E 012°12'1010.5
2014-Aug-27 21:34N 54°40' E 012°22'1211.6
2014-Aug-27 20:34N 54°46' E 012°39'1211.5
2014-Aug-27 19:33N 54°47' E 012°59'1212.2
2014-Aug-27 18:33N 54°46' E 013°20'1110.7
2014-Aug-27 17:34N 54°43' E 013°37'1111.4
2014-Aug-27 16:34N 54°33' E 013°46'5 5.1
2014-Aug-27 15:34N 54°31' E 013°38'0 0.0
2014-Aug-27 14:33N 54°31' E 013°38'0 0.0
2014-Aug-27 13:33N 54°31' E 013°38'0 0.0
2014-Aug-27 12:34N 54°31' E 013°38'0 0.0
2014-Aug-27 11:33N 54°31' E 013°38'0 0.0
2014-Aug-27 10:33N 54°31' E 013°38'0 0.0
2014-Aug-27 09:34N 54°31' E 013°38'0 0.0
2014-Aug-27 08:33N 54°31' E 013°38'0 0.0
2014-Aug-27 07:34N 54°31' E 013°38'0 0.0
2014-Aug-27 06:33N 54°31' E 013°38'7 7.1
2014-Aug-27 05:34N 54°27' E 013°49'10 9.6
2014-Aug-27 04:34N 54°29' E 014°05'10 9.8
2014-Aug-27 03:32N 54°32' E 014°21'20 9.9
2014-Aug-27 01:31N 54°42' E 014°51'2310.1
2014-Aug-26 23:14N 54°57' E 015°23'1110.5
2014-Aug-26 22:11N 55°04' E 015°37'39112.6
2014-Aug-25 15:10N 59°30' E 024°27'914.5
2014-Aug-25 14:33N 59°32' E 024°44'3 0.3
2014-Aug-25 05:32N 59°29' E 024°45'1211.3
2014-Aug-25 04:26N 59°42' E 024°46'5610.9
2014-Aug-24 23:18N 60°01' E 026°30'11212.6
2014-Aug-24 14:23N 59°55' E 030°14'1 0.9
2014-Aug-24 13:28N 59°56' E 030°14'0 0.0
2014-Aug-24 12:32N 59°56' E 030°14'0 0.0
2014-Aug-24 11:29N 59°56' E 030°14'0 0.0
2014-Aug-24 10:30N 59°56' E 030°14'0 0.0
2014-Aug-24 09:33N 59°56' E 030°14'0 0.0
2014-Aug-24 08:31N 59°56' E 030°14'0 0.0
2014-Aug-24 07:32N 59°56' E 030°14'0 0.0
2014-Aug-24 06:33N 59°56' E 030°14'0 0.0
2014-Aug-24 05:33N 59°56' E 030°14'0 0.0
2014-Aug-24 04:31N 59°56' E 030°14'0 0.0
2014-Aug-24 03:32N 59°56' E 030°14'0 0.0
2014-Aug-24 02:23N 59°56' E 030°14'0 0.0
2014-Aug-24 01:30N 59°56' E 030°14'0 0.0
2014-Aug-24 00:30N 59°56' E 030°14'0 0.0
2014-Aug-23 23:31N 59°56' E 030°14'0 0.0
2014-Aug-23 22:32N 59°56' E 030°14'0 0.0
2014-Aug-23 21:32N 59°56' E 030°14'0 0.0
2014-Aug-23 20:33N 59°56' E 030°14'0 0.0
2014-Aug-23 19:28N 59°56' E 030°14'0 0.0
2014-Aug-23 03:33N 59°56' E 030°14'0 0.0
2014-Aug-23 02:31N 59°56' E 030°14'0 0.0
2014-Aug-23 01:29N 59°56' E 030°14'0 0.0
2014-Aug-23 00:32N 59°56' E 030°14'0 0.0
2014-Aug-22 23:33N 59°56' E 030°14'0 0.0
2014-Aug-22 22:31N 59°56' E 030°14'0 0.0
2014-Aug-22 21:31N 59°56' E 030°14'0 0.0
2014-Aug-22 20:32N 59°56' E 030°14'0 0.0
2014-Aug-22 19:33N 59°56' E 030°14'0 0.0
2014-Aug-22 18:33N 59°56' E 030°14'0 0.0
2014-Aug-22 17:33N 59°56' E 030°14'0 0.0
2014-Aug-22 16:33N 59°56' E 030°14'0 0.0
2014-Aug-22 15:31N 59°56' E 030°14'0 0.0
2014-Aug-22 13:31N 59°56' E 030°14'3 3.3
2014-Aug-22 12:30N 59°54' E 030°09'97 8.9
2014-Aug-22 01:33N 59°58' E 026°55'1915.1
2014-Aug-22 00:19N 59°56' E 026°18'7415.6
2014-Aug-21 19:33N 59°39' E 023°54'1515.1
2014-Aug-21 18:33N 59°34' E 023°26'228 6.4
2014-Aug-20 07:06N 57°15' E 017°39'5 9.3
2014-Aug-20 06:33N 57°10' E 017°35'18 9.2
2014-Aug-20 04:32N 56°53' E 017°24'63 8.4
2014-Aug-19 21:06N 55°57' E 016°32'61 9.4
2014-Aug-19 14:34N 55°16' E 015°11'8 7.8
2014-Aug-19 13:34N 55°13' E 014°59'0 0.1
2014-Aug-19 12:34N 55°13' E 014°59'0 0.1
2014-Aug-19 11:34N 55°13' E 014°59'0 0.1
2014-Aug-19 10:34N 55°13' E 014°59'0 0.3
2014-Aug-19 09:33N 55°13' E 014°59'0 0.3
2014-Aug-19 08:34N 55°13' E 014°59'  
Track history (hours):
 
Tides and Currents Weather Stations Pressure Air Temp Water Temp Dewpoint Dewpoint Depression Visibility Wind Speed Wind Dir Waves Ship Positions

Seadream 1

Last reported at 2014-Aug-29 08:33 UTC. Time now 2014-Aug-29 12:22 UTC.
Position N 53°30' E 004°46'.

Length 105 m; draft 4.4 m.

Type: Ship. MMSI: 308908000.

Date/timePositionNaut miles runAvg speedWind from/ knotsBaromVisibWave heightAir tempDewpointWater temp
2014-Aug-29 08:33N 53°30' E 004°46'107 9.4
2014-Aug-28 21:07N 54°01' E 007°39'610.7
2014-Aug-28 20:33N 54°02' E 007°49'1311.7
2014-Aug-28 19:26N 54°00' E 008°12'1516.7
2014-Aug-28 18:33N 53°58' E 008°36'1616.0
2014-Aug-28 17:34N 53°52' E 009°01'6 6.3
2014-Aug-28 16:33N 53°55' E 009°10'9 8.5
2014-Aug-28 15:33N 54°02' E 009°18'4 3.8
2014-Aug-28 14:33N 54°06' E 009°20'5 4.6
2014-Aug-28 13:33N 54°10' E 009°23'32 4.6
2014-Aug-28 06:26N 54°25' E 010°13'2110.0
2014-Aug-28 04:19N 54°35' E 010°45'7 9.7
2014-Aug-28 03:34N 54°36' E 010°57'19 9.4
2014-Aug-28 01:30N 54°31' E 011°30'10 9.6
2014-Aug-28 00:29N 54°27' E 011°45'9 9.6
2014-Aug-27 23:34N 54°26' E 011°60'9 8.6
2014-Aug-27 22:33N 54°31' E 012°12'1010.5
2014-Aug-27 21:34N 54°40' E 012°22'1211.6
2014-Aug-27 20:34N 54°46' E 012°39'1211.5
2014-Aug-27 19:33N 54°47' E 012°59'1212.2
2014-Aug-27 18:33N 54°46' E 013°20'1110.7
2014-Aug-27 17:34N 54°43' E 013°37'1111.4
2014-Aug-27 16:34N 54°33' E 013°46'5 5.1
2014-Aug-27 15:34N 54°31' E 013°38'0 0.0
2014-Aug-27 14:33N 54°31' E 013°38'0 0.0
2014-Aug-27 13:33N 54°31' E 013°38'0 0.0
2014-Aug-27 12:34N 54°31' E 013°38'0 0.0
2014-Aug-27 11:33N 54°31' E 013°38'0 0.0
2014-Aug-27 10:33N 54°31' E 013°38'0 0.0
2014-Aug-27 09:34N 54°31' E 013°38'0 0.0
2014-Aug-27 08:33N 54°31' E 013°38'0 0.0
2014-Aug-27 07:34N 54°31' E 013°38'0 0.0
2014-Aug-27 06:33N 54°31' E 013°38'7 7.1
2014-Aug-27 05:34N 54°27' E 013°49'10 9.6
2014-Aug-27 04:34N 54°29' E 014°05'10 9.8
2014-Aug-27 03:32N 54°32' E 014°21'20 9.9
2014-Aug-27 01:31N 54°42' E 014°51'2310.1
2014-Aug-26 23:14N 54°57' E 015°23'1110.5
2014-Aug-26 22:11N 55°04' E 015°37'39112.6
2014-Aug-25 15:10N 59°30' E 024°27'914.5
2014-Aug-25 14:33N 59°32' E 024°44'3 0.3
2014-Aug-25 05:32N 59°29' E 024°45'1211.3
2014-Aug-25 04:26N 59°42' E 024°46'5610.9
2014-Aug-24 23:18N 60°01' E 026°30'11212.6
2014-Aug-24 14:23N 59°55' E 030°14'1 0.9
2014-Aug-24 13:28N 59°56' E 030°14'0 0.0
2014-Aug-24 12:32N 59°56' E 030°14'0 0.0
2014-Aug-24 11:29N 59°56' E 030°14'0 0.0
2014-Aug-24 10:30N 59°56' E 030°14'0 0.0
2014-Aug-24 09:33N 59°56' E 030°14'0 0.0
2014-Aug-24 08:31N 59°56' E 030°14'0 0.0
2014-Aug-24 07:32N 59°56' E 030°14'0 0.0
2014-Aug-24 06:33N 59°56' E 030°14'0 0.0
2014-Aug-24 05:33N 59°56' E 030°14'0 0.0
2014-Aug-24 04:31N 59°56' E 030°14'0 0.0
2014-Aug-24 03:32N 59°56' E 030°14'0 0.0
2014-Aug-24 02:23N 59°56' E 030°14'0 0.0
2014-Aug-24 01:30N 59°56' E 030°14'0 0.0
2014-Aug-24 00:30N 59°56' E 030°14'0 0.0
2014-Aug-23 23:31N 59°56' E 030°14'0 0.0
2014-Aug-23 22:32N 59°56' E 030°14'0 0.0
2014-Aug-23 21:32N 59°56' E 030°14'0 0.0
2014-Aug-23 20:33N 59°56' E 030°14'0 0.0
2014-Aug-23 19:28N 59°56' E 030°14'0 0.0
2014-Aug-23 03:33N 59°56' E 030°14'0 0.0
2014-Aug-23 02:31N 59°56' E 030°14'0 0.0
2014-Aug-23 01:29N 59°56' E 030°14'0 0.0
2014-Aug-23 00:32N 59°56' E 030°14'0 0.0
2014-Aug-22 23:33N 59°56' E 030°14'0 0.0
2014-Aug-22 22:31N 59°56' E 030°14'0 0.0
2014-Aug-22 21:31N 59°56' E 030°14'0 0.0
2014-Aug-22 20:32N 59°56' E 030°14'0 0.0
2014-Aug-22 19:33N 59°56' E 030°14'0 0.0
2014-Aug-22 18:33N 59°56' E 030°14'0 0.0
2014-Aug-22 17:33N 59°56' E 030°14'0 0.0
2014-Aug-22 16:33N 59°56' E 030°14'0 0.0
2014-Aug-22 15:31N 59°56' E 030°14'0 0.0
2014-Aug-22 13:31N 59°56' E 030°14'3 3.3
2014-Aug-22 12:30N 59°54' E 030°09'97 8.9
2014-Aug-22 01:33N 59°58' E 026°55'1915.1
2014-Aug-22 00:19N 59°56' E 026°18'7415.6
2014-Aug-21 19:33N 59°39' E 023°54'1515.1
2014-Aug-21 18:33N 59°34' E 023°26'228 6.4
2014-Aug-20 07:06N 57°15' E 017°39'5 9.3
2014-Aug-20 06:33N 57°10' E 017°35'18 9.2
2014-Aug-20 04:32N 56°53' E 017°24'63 8.4
2014-Aug-19 21:06N 55°57' E 016°32'61 9.4
2014-Aug-19 14:34N 55°16' E 015°11'8 7.8
2014-Aug-19 13:34N 55°13' E 014°59'0 0.1
2014-Aug-19 12:34N 55°13' E 014°59'0 0.1
2014-Aug-19 11:34N 55°13' E 014°59'0 0.1
2014-Aug-19 10:34N 55°13' E 014°59'0 0.3
2014-Aug-19 09:33N 55°13' E 014°59'0 0.3
2014-Aug-19 08:34N 55°13' E 014°59'  

Dump ship's entire track history